Time;durP1;ratioP1;P1;durP2;ratioP2;P2;SDS_P1;SDS_P2;PMS_P1;PMS_P2;Temp;Humidity;BMP_temperature;BMP_pressure;BME280_temperature;BME280_humidity;BME280_pressure;Samples;Min_cycle;Max_cycle;Signal;HPM_P1;HPM_P2
2022/10/22 00:01:33;;;;;;;12.30;9.35;;;;;;;;;;5113701;27;20401;-74
2022/10/22 00:03:58;;;;;;;11.93;8.90;;;;;;;;;;5112855;27;20043;-70
2022/10/22 00:06:24;;;;;;;11.60;9.68;;;;;;;;;;5092658;27;20283;-72
2022/10/22 00:08:49;;;;;;;12.50;9.20;;;;;;;;;;5107826;27;20027;-74
2022/10/22 00:11:16;;;;;;;11.98;9.27;;;;;;;;;;5111218;27;20110;-72
2022/10/22 00:13:41;;;;;;;10.13;8.15;;;;;;;;;;5111395;27;20027;-77
2022/10/22 00:16:07;;;;;;;14.00;9.10;;;;;;;;;;5108704;27;20035;-77
2022/10/22 00:18:32;;;;;;;12.02;9.07;;;;;;;;;;5107928;27;20034;-76
2022/10/22 00:20:57;;;;;;;14.30;9.57;;;;;;;;;;5111191;27;20030;-68
2022/10/22 00:23:22;;;;;;;13.45;8.20;;;;;;;;;;5091630;27;20034;-75
2022/10/22 00:25:48;;;;;;;14.53;8.53;;;;;;;;;;5107015;27;20609;-73
2022/10/22 00:28:14;;;;;;;15.10;9.43;;;;;;;;;;5108490;27;20023;-74
2022/10/22 00:30:39;;;;;;;12.23;8.47;;;;;;;;;;5112055;27;20914;-71
2022/10/22 00:33:04;;;;;;;13.50;9.77;;;;;;;;;;5110636;27;20079;-73
2022/10/22 00:35:29;;;;;;;14.13;10.48;;;;;;;;;;5110051;27;20019;-71
2022/10/22 00:37:55;;;;;;;16.87;10.53;;;;;;;;;;5107149;27;20874;-73
2022/10/22 00:40:20;;;;;;;18.83;11.13;;;;;;;;;;5106668;27;20389;-75
2022/10/22 00:42:45;;;;;;;13.90;10.57;;;;;;;;;;5110990;27;20039;-74
2022/10/22 00:45:10;;;;;;;13.60;10.67;;;;;;;;;;5110952;27;20377;-71
2022/10/22 00:47:38;;;;;;;15.43;11.43;;;;;;;;;;5110790;27;20055;-73
2022/10/22 00:50:05;;;;;;;16.67;12.20;;;;;;;;;;5112238;27;20094;-74
2022/10/22 00:52:31;;;;;;;17.73;12.33;;;;;;;;;;5109804;27;20043;-67
2022/10/22 00:54:56;;;;;;;16.80;11.33;;;;;;;;;;5111364;27;20016;-76
2022/10/22 00:57:21;;;;;;;18.53;12.33;;;;;;;;;;5109285;27;20031;-76
2022/10/22 00:59:47;;;;;;;14.10;10.63;;;;;;;;;;5106085;27;20031;-73
2022/10/22 01:02:12;;;;;;;14.90;11.03;;;;;;;;;;5106224;27;20036;-72
2022/10/22 01:04:38;;;;;;;15.77;10.67;;;;;;;;;;5110205;27;20510;-75
2022/10/22 01:07:04;;;;;;;14.90;10.87;;;;;;;;;;5111551;27;20084;-73
2022/10/22 01:09:44;;;;;;;21.17;12.13;;;;;;;;;;5107615;27;20620;-75
2022/10/22 01:12:18;;;;;;;17.87;11.80;;;;;;;;;;5106627;27;20039;-74
2022/10/22 01:15:03;;;;;;;15.00;10.63;;;;;;;;;;5107209;27;20031;-77
2022/10/22 01:17:40;;;;;;;14.30;10.07;;;;;;;;;;5057349;27;20039;-71
2022/10/22 01:20:08;;;;;;;15.53;10.97;;;;;;;;;;5109454;27;20027;-76
2022/10/22 01:22:43;;;;;;;12.93;10.83;;;;;;;;;;5106655;27;20152;-76
2022/10/22 01:25:15;;;;;;;14.03;10.63;;;;;;;;;;5110904;27;20027;-76
2022/10/22 01:27:46;;;;;;;15.70;10.63;;;;;;;;;;5109893;27;20024;-76
2022/10/22 01:30:13;;;;;;;14.03;10.77;;;;;;;;;;5109704;27;20023;-71
2022/10/22 01:32:41;;;;;;;18.47;12.33;;;;;;;;;;5102536;27;20054;-76
2022/10/22 01:35:08;;;;;;;17.70;11.33;;;;;;;;;;5109526;27;20465;-70
2022/10/22 01:37:35;;;;;;;17.60;11.27;;;;;;;;;;5111167;27;20034;-72
2022/10/22 01:40:01;;;;;;;17.00;11.15;;;;;;;;;;5110381;27;20058;-76
2022/10/22 01:42:26;;;;;;;21.73;12.77;;;;;;;;;;5108029;27;20468;-71
2022/10/22 01:44:51;;;;;;;15.50;10.67;;;;;;;;;;5111528;27;20568;-67
2022/10/22 01:47:22;;;;;;;14.93;10.87;;;;;;;;;;5110021;27;20144;-76
2022/10/22 01:50:06;;;;;;;21.10;11.20;;;;;;;;;;5111454;27;20027;-76
2022/10/22 01:52:39;;;;;;;14.53;10.43;;;;;;;;;;5110601;27;20032;-74
2022/10/22 01:55:10;;;;;;;14.70;11.17;;;;;;;;;;5111757;27;20036;-72
2022/10/22 01:57:42;;;;;;;17.27;11.00;;;;;;;;;;5113669;27;20479;-76
2022/10/22 02:00:09;;;;;;;13.90;10.33;;;;;;;;;;5113130;27;20024;-75
2022/10/22 02:02:46;;;;;;;15.50;10.57;;;;;;;;;;5111478;27;20039;-76
2022/10/22 02:05:11;;;;;;;13.70;10.33;;;;;;;;;;5111039;27;20084;-76
2022/10/22 02:07:40;;;;;;;15.90;11.07;;;;;;;;;;5112061;27;20547;-74
2022/10/22 02:10:06;;;;;;;15.20;11.70;;;;;;;;;;5111614;27;20106;-75
2022/10/22 02:12:32;;;;;;;18.13;11.13;;;;;;;;;;5110894;27;20054;-73
2022/10/22 02:14:59;;;;;;;16.00;11.03;;;;;;;;;;5110969;27;20490;-71
2022/10/22 02:17:26;;;;;;;14.43;10.90;;;;;;;;;;5107607;27;20015;-74
2022/10/22 02:19:53;;;;;;;14.77;10.70;;;;;;;;;;5109984;27;20080;-75
2022/10/22 02:22:19;;;;;;;15.43;10.23;;;;;;;;;;5109146;27;20027;-73
2022/10/22 02:24:45;;;;;;;14.90;10.43;;;;;;;;;;5108399;27;20034;-76
2022/10/22 02:27:10;;;;;;;13.50;10.10;;;;;;;;;;5094190;27;20026;-74
2022/10/22 02:29:38;;;;;;;14.57;9.83;;;;;;;;;;5091638;28;20379;-75
2022/10/22 02:32:05;;;;;;;16.63;11.07;;;;;;;;;;5107044;27;20031;-75
2022/10/22 02:34:31;;;;;;;15.73;10.90;;;;;;;;;;5105311;27;20557;-76
2022/10/22 02:36:58;;;;;;;15.20;10.87;;;;;;;;;;5108146;27;20015;-76
2022/10/22 02:39:24;;;;;;;18.40;12.00;;;;;;;;;;5109617;28;20382;-74
2022/10/22 02:41:49;;;;;;;14.27;9.93;;;;;;;;;;5108535;27;20066;-75
2022/10/22 02:44:14;;;;;;;20.43;11.80;;;;;;;;;;5107364;28;20085;-75
2022/10/22 02:46:41;;;;;;;17.90;11.67;;;;;;;;;;5109282;28;20032;-74
2022/10/22 02:49:06;;;;;;;15.37;10.70;;;;;;;;;;5109452;28;20265;-72
2022/10/22 02:51:31;;;;;;;16.80;11.47;;;;;;;;;;5110116;28;20045;-73
2022/10/22 02:53:57;;;;;;;15.83;11.23;;;;;;;;;;5107322;27;20035;-76
2022/10/22 02:56:22;;;;;;;12.70;10.20;;;;;;;;;;5108958;28;20036;-71
2022/10/22 02:58:47;;;;;;;16.13;10.00;;;;;;;;;;5110260;28;20019;-72
2022/10/22 03:01:12;;;;;;;19.80;12.87;;;;;;;;;;5098541;28;20051;-74
2022/10/22 03:03:38;;;;;;;17.13;11.87;;;;;;;;;;5109357;28;20493;-74
2022/10/22 03:06:03;;;;;;;20.73;13.20;;;;;;;;;;5110191;28;20397;-76
2022/10/22 03:08:28;;;;;;;18.43;13.60;;;;;;;;;;5109778;27;20631;-74
2022/10/22 03:10:53;;;;;;;18.33;12.63;;;;;;;;;;5110672;27;20024;-75
2022/10/22 03:13:19;;;;;;;16.80;12.37;;;;;;;;;;5106366;28;20039;-75
2022/10/22 03:15:44;;;;;;;18.70;12.93;;;;;;;;;;5112373;27;20027;-73
2022/10/22 03:18:09;;;;;;;20.10;12.63;;;;;;;;;;5113393;27;20478;-72
2022/10/22 03:20:34;;;;;;;20.07;13.17;;;;;;;;;;5112951;27;20168;-76
2022/10/22 03:23:01;;;;;;;20.77;15.17;;;;;;;;;;5114873;27;20066;-74
2022/10/22 03:25:27;;;;;;;17.87;13.20;;;;;;;;;;5111312;27;20358;-76
2022/10/22 03:27:53;;;;;;;22.07;12.40;;;;;;;;;;5094420;27;20043;-74
2022/10/22 03:30:18;;;;;;;19.90;13.33;;;;;;;;;;5116234;27;20019;-76
2022/10/22 03:32:44;;;;;;;17.47;12.60;;;;;;;;;;5115327;27;20488;-76
2022/10/22 03:35:09;;;;;;;15.97;11.83;;;;;;;;;;5114815;27;20100;-75
2022/10/22 03:37:35;;;;;;;18.50;12.10;;;;;;;;;;5111892;27;20469;-74
2022/10/22 03:40:00;;;;;;;18.60;12.77;;;;;;;;;;5112980;27;20474;-70
2022/10/22 03:42:26;;;;;;;19.27;12.50;;;;;;;;;;5113893;27;20038;-75
2022/10/22 03:44:51;;;;;;;17.50;12.10;;;;;;;;;;5112443;27;20034;-73
2022/10/22 03:47:16;;;;;;;20.03;11.97;;;;;;;;;;5114663;27;20486;-74
2022/10/22 03:49:41;;;;;;;22.10;13.43;;;;;;;;;;5114550;27;20630;-74
2022/10/22 03:52:08;;;;;;;19.00;12.10;;;;;;;;;;5115791;27;20110;-71
2022/10/22 03:54:34;;;;;;;19.60;11.90;;;;;;;;;;5113132;27;20145;-76
2022/10/22 03:56:59;;;;;;;15.43;11.60;;;;;;;;;;5115512;27;20089;-76
2022/10/22 03:59:25;;;;;;;17.87;12.40;;;;;;;;;;5114351;27;21011;-66
2022/10/22 04:01:50;;;;;;;17.83;12.20;;;;;;;;;;5112345;27;20046;-66
2022/10/22 04:04:15;;;;;;;18.50;12.73;;;;;;;;;;5112529;27;20026;-66
2022/10/22 04:06:40;;;;;;;24.83;13.10;;;;;;;;;;5112512;27;20489;-67
2022/10/22 04:09:05;;;;;;;19.17;11.73;;;;;;;;;;5111518;27;20024;-65
2022/10/22 04:11:31;;;;;;;17.00;11.83;;;;;;;;;;5112764;27;20098;-66
2022/10/22 04:13:56;;;;;;;24.97;13.57;;;;;;;;;;5109362;27;20067;-66
2022/10/22 04:16:22;;;;;;;16.57;11.77;;;;;;;;;;5108120;27;20099;-66
2022/10/22 04:18:48;;;;;;;14.60;10.23;;;;;;;;;;5110002;27;20458;-68
2022/10/22 04:21:14;;;;;;;16.40;11.17;;;;;;;;;;5113251;27;20030;-67
2022/10/22 04:23:50;;;;;;;15.60;11.00;;;;;;;;;;5112417;27;20039;-64
2022/10/22 04:26:16;;;;;;;16.40;11.70;;;;;;;;;;5092926;28;20023;-66
2022/10/22 04:28:41;;;;;;;16.90;11.90;;;;;;;;;;5111021;27;20908;-67
2022/10/22 04:31:08;;;;;;;19.00;11.13;;;;;;;;;;5112217;27;20035;-65
2022/10/22 04:33:33;;;;;;;17.77;12.03;;;;;;;;;;5111546;27;20083;-65
2022/10/22 04:35:58;;;;;;;18.37;11.57;;;;;;;;;;5113068;27;20031;-66
2022/10/22 04:38:23;;;;;;;17.40;11.03;;;;;;;;;;5111241;27;20046;-66
2022/10/22 04:40:48;;;;;;;18.17;11.60;;;;;;;;;;5111303;27;20028;-65
2022/10/22 04:43:14;;;;;;;18.17;11.77;;;;;;;;;;5110623;27;20071;-67
2022/10/22 04:45:39;;;;;;;16.70;12.10;;;;;;;;;;5112156;27;20384;-66
2022/10/22 04:48:04;;;;;;;19.80;13.00;;;;;;;;;;5112714;27;20512;-65
2022/10/22 04:50:30;;;;;;;23.00;13.97;;;;;;;;;;5109098;27;20035;-67
2022/10/22 04:52:55;;;;;;;17.00;12.27;;;;;;;;;;5111397;27;20124;-66
2022/10/22 04:55:20;;;;;;;22.53;12.47;;;;;;;;;;5109805;27;20513;-65
2022/10/22 04:57:45;;;;;;;15.33;11.20;;;;;;;;;;5108766;27;20760;-66
2022/10/22 05:00:11;;;;;;;16.47;12.43;;;;;;;;;;5089544;27;20398;-59
2022/10/22 05:02:36;;;;;;;17.97;11.80;;;;;;;;;;5091935;27;20039;-59
2022/10/22 05:05:01;;;;;;;16.33;12.20;;;;;;;;;;5110464;27;20474;-59
2022/10/22 05:07:26;;;;;;;15.40;12.07;;;;;;;;;;5110011;27;20027;-59
2022/10/22 05:09:52;;;;;;;19.17;11.50;;;;;;;;;;5110383;27;20035;-60
2022/10/22 05:12:17;;;;;;;17.70;11.80;;;;;;;;;;5112367;27;20514;-60
2022/10/22 05:14:43;;;;;;;15.03;11.83;;;;;;;;;;5106947;27;20553;-59
2022/10/22 05:17:08;;;;;;;16.90;12.13;;;;;;;;;;5111488;27;20105;-59
2022/10/22 05:19:33;;;;;;;18.20;11.80;;;;;;;;;;5110615;27;20031;-62
2022/10/22 05:21:59;;;;;;;20.97;13.53;;;;;;;;;;5111857;27;20028;-59
2022/10/22 05:24:25;;;;;;;17.83;13.20;;;;;;;;;;5110032;27;20027;-59
2022/10/22 05:26:51;;;;;;;16.17;11.70;;;;;;;;;;5112624;27;20575;-60
2022/10/22 05:29:17;;;;;;;17.23;12.10;;;;;;;;;;5109198;27;20605;-65
2022/10/22 05:31:42;;;;;;;17.93;11.93;;;;;;;;;;5110736;27;20122;-65
2022/10/22 05:34:07;;;;;;;15.47;10.70;;;;;;;;;;5110440;27;20076;-65
2022/10/22 05:36:33;;;;;;;19.93;11.93;;;;;;;;;;5109565;27;20057;-65
2022/10/22 05:38:58;;;;;;;18.57;12.37;;;;;;;;;;5094965;27;20027;-66
2022/10/22 05:41:24;;;;;;;21.70;13.67;;;;;;;;;;5112109;27;20027;-66
2022/10/22 05:43:49;;;;;;;18.70;12.03;;;;;;;;;;5108401;27;20087;-66
2022/10/22 05:46:16;;;;;;;16.23;11.50;;;;;;;;;;5110394;27;20423;-66
2022/10/22 05:48:42;;;;;;;17.10;11.80;;;;;;;;;;5109966;27;20035;-66
2022/10/22 05:51:11;;;;;;;13.70;10.83;;;;;;;;;;5110458;27;20028;-66
2022/10/22 05:53:37;;;;;;;13.63;10.80;;;;;;;;;;5111505;27;20081;-66
2022/10/22 05:56:04;;;;;;;21.10;11.50;;;;;;;;;;5089775;27;20039;-66
2022/10/22 05:58:29;;;;;;;17.37;11.63;;;;;;;;;;5110921;27;20061;-64
2022/10/22 06:00:59;;;;;;;18.93;12.07;;;;;;;;;;5108689;27;20027;-66
2022/10/22 06:03:24;;;;;;;116.70;52.37;;;;;;;;;;5108294;27;20071;-66
2022/10/22 06:05:50;;;;;;;36.63;20.53;;;;;;;;;;5108822;27;20211;-64
2022/10/22 06:08:15;;;;;;;23.70;16.83;;;;;;;;;;5109640;27;20035;-67
2022/10/22 06:10:41;;;;;;;21.30;13.43;;;;;;;;;;5108888;27;20031;-65
2022/10/22 06:13:07;;;;;;;17.57;12.53;;;;;;;;;;5110270;27;20084;-65
2022/10/22 06:15:32;;;;;;;14.67;12.03;;;;;;;;;;5108015;27;20023;-64
2022/10/22 06:17:57;;;;;;;17.83;11.03;;;;;;;;;;5108607;27;20030;-64
2022/10/22 06:20:22;;;;;;;17.30;11.03;;;;;;;;;;5109748;27;20019;-64
2022/10/22 06:22:48;;;;;;;19.70;11.80;;;;;;;;;;5109415;27;20027;-68
2022/10/22 06:25:13;;;;;;;18.90;10.63;;;;;;;;;;5111131;27;20028;-64
2022/10/22 06:27:38;;;;;;;18.23;11.73;;;;;;;;;;5111079;27;20109;-64
2022/10/22 06:30:04;;;;;;;20.10;13.07;;;;;;;;;;5108645;27;20574;-64
2022/10/22 06:32:30;;;;;;;19.87;13.33;;;;;;;;;;5106095;27;20059;-71
2022/10/22 06:34:55;;;;;;;17.77;11.87;;;;;;;;;;5104115;27;20039;-63
2022/10/22 06:37:20;;;;;;;17.87;11.07;;;;;;;;;;5108104;27;20128;-62
2022/10/22 06:39:46;;;;;;;17.00;10.33;;;;;;;;;;5110194;28;20434;-63
2022/10/22 06:42:11;;;;;;;21.47;11.40;;;;;;;;;;5109366;28;21930;-64
2022/10/22 06:44:36;;;;;;;14.80;11.47;;;;;;;;;;5103456;27;20058;-71
2022/10/22 06:47:01;;;;;;;15.33;10.93;;;;;;;;;;5087599;28;20379;-64
2022/10/22 06:49:27;;;;;;;19.10;11.73;;;;;;;;;;5106232;27;20513;-63
2022/10/22 06:51:52;;;;;;;14.37;10.80;;;;;;;;;;5108301;27;20112;-66
2022/10/22 06:54:18;;;;;;;13.53;10.50;;;;;;;;;;5109612;27;20126;-60
2022/10/22 06:56:43;;;;;;;12.10;9.43;;;;;;;;;;5108581;27;20034;-61
2022/10/22 06:59:08;;;;;;;16.07;11.07;;;;;;;;;;5110706;27;20043;-66
2022/10/22 07:01:34;;;;;;;14.23;10.35;;;;;;;;;;5107826;27;20041;-66
2022/10/22 07:04:00;;;;;;;16.00;9.95;;;;;;;;;;5108989;27;20084;-63
2022/10/22 07:06:26;;;;;;;12.00;8.90;;;;;;;;;;5110934;27;20059;-64
2022/10/22 07:08:52;;;;;;;12.15;9.45;;;;;;;;;;5113742;27;20038;-64
2022/10/22 07:11:18;;;;;;;15.45;10.75;;;;;;;;;;5110934;27;20417;-64
2022/10/22 07:13:44;;;;;;;15.10;10.30;;;;;;;;;;5112026;27;20085;-64
2022/10/22 07:16:09;;;;;;;12.38;9.65;;;;;;;;;;5113018;27;20127;-64
2022/10/22 07:18:36;;;;;;;13.68;10.13;;;;;;;;;;5093886;27;20483;-64
2022/10/22 07:21:01;;;;;;;13.40;9.30;;;;;;;;;;5111771;27;20023;-65
2022/10/22 07:23:27;;;;;;;13.77;9.73;;;;;;;;;;5112500;27;20398;-64
2022/10/22 07:25:52;;;;;;;12.55;9.75;;;;;;;;;;5109406;27;20547;-63
2022/10/22 07:28:18;;;;;;;12.93;9.73;;;;;;;;;;5109310;27;20114;-64
2022/10/22 07:30:43;;;;;;;17.20;9.52;;;;;;;;;;5111156;27;20111;-64
2022/10/22 07:33:08;;;;;;;13.32;10.13;;;;;;;;;;5112717;27;20039;-64
2022/10/22 07:35:35;;;;;;;11.65;10.40;;;;;;;;;;5112227;27;20031;-64
2022/10/22 07:38:00;;;;;;;16.42;10.02;;;;;;;;;;5111958;27;20016;-63
2022/10/22 07:40:26;;;;;;;16.40;10.27;;;;;;;;;;5112047;27;20583;-63
2022/10/22 07:42:51;;;;;;;14.30;10.55;;;;;;;;;;5110721;27;20028;-66
2022/10/22 07:45:18;;;;;;;19.55;10.77;;;;;;;;;;5112493;27;20447;-65
2022/10/22 07:47:43;;;;;;;14.07;10.30;;;;;;;;;;5112052;27;20488;-64
2022/10/22 07:50:08;;;;;;;18.27;10.93;;;;;;;;;;5111820;27;20027;-64
2022/10/22 07:52:34;;;;;;;12.95;10.13;;;;;;;;;;5108222;27;20085;-63
2022/10/22 07:54:59;;;;;;;18.23;11.57;;;;;;;;;;5109097;27;20112;-64
2022/10/22 07:57:24;;;;;;;14.43;10.18;;;;;;;;;;5112524;27;20023;-64
2022/10/22 07:59:49;;;;;;;16.58;11.13;;;;;;;;;;5113650;27;20036;-64
2022/10/22 08:02:15;;;;;;;14.18;10.70;;;;;;;;;;5109768;27;20039;-64
2022/10/22 08:04:40;;;;;;;17.80;11.95;;;;;;;;;;5111809;27;20034;-64
2022/10/22 08:07:05;;;;;;;17.30;10.80;;;;;;;;;;5109193;27;20026;-64
2022/10/22 08:09:31;;;;;;;14.60;11.15;;;;;;;;;;5106826;27;20530;-64
2022/10/22 08:11:56;;;;;;;13.40;10.98;;;;;;;;;;5108754;27;20530;-65
2022/10/22 08:14:21;;;;;;;15.32;10.70;;;;;;;;;;5107017;27;20027;-65
2022/10/22 08:16:47;;;;;;;13.70;10.77;;;;;;;;;;5108562;27;20028;-65
2022/10/22 08:19:12;;;;;;;16.95;11.95;;;;;;;;;;5113276;27;20395;-69
2022/10/22 08:21:38;;;;;;;16.95;12.23;;;;;;;;;;5113734;27;20104;-65
2022/10/22 08:24:04;;;;;;;18.05;12.57;;;;;;;;;;5111218;27;20041;-63
2022/10/22 08:26:29;;;;;;;16.45;12.20;;;;;;;;;;5111779;27;20042;-65
2022/10/22 08:28:54;;;;;;;20.83;12.35;;;;;;;;;;5095322;27;20565;-62
2022/10/22 08:31:20;;;;;;;14.48;11.48;;;;;;;;;;5110311;27;20087;-64
2022/10/22 08:33:45;;;;;;;17.45;13.00;;;;;;;;;;5110854;27;20063;-64
2022/10/22 08:36:10;;;;;;;14.82;10.88;;;;;;;;;;5109158;27;20057;-66
2022/10/22 08:38:36;;;;;;;14.10;11.15;;;;;;;;;;5091522;27;20031;-64
2022/10/22 08:41:10;;;;;;;15.57;11.77;;;;;;;;;;5111802;27;20023;-61
2022/10/22 08:43:54;;;;;;;14.90;10.68;;;;;;;;;;5108141;27;20035;-63
2022/10/22 08:46:27;;;;;;;13.15;11.73;;;;;;;;;;5111847;27;20032;-62
2022/10/22 08:48:54;;;;;;;16.23;11.63;;;;;;;;;;5106351;27;20394;-63
2022/10/22 08:51:24;;;;;;;18.33;11.27;;;;;;;;;;5108964;27;20047;-62
2022/10/22 08:54:07;;;;;;;12.60;9.90;;;;;;;;;;5111372;27;20924;-61
2022/10/22 08:56:35;;;;;;;16.45;10.18;;;;;;;;;;5112724;27;20027;-63
2022/10/22 08:59:08;;;;;;;18.10;13.90;;;;;;;;;;5112269;27;20027;-62
2022/10/22 09:01:33;;;;;;;19.90;14.38;;;;;;;;;;5106092;27;20111;-60
2022/10/22 09:04:04;;;;;;;17.58;13.80;;;;;;;;;;5107862;27;20118;-66
2022/10/22 09:06:31;;;;;;;12.90;11.43;;;;;;;;;;5109979;27;20072;-63
2022/10/22 09:08:58;;;;;;;17.27;11.85;;;;;;;;;;5112453;27;20567;-64
2022/10/22 09:11:31;;;;;;;13.77;11.68;;;;;;;;;;5107929;27;20043;-64
2022/10/22 09:13:58;;;;;;;14.88;12.35;;;;;;;;;;5112012;27;20389;-65
2022/10/22 09:16:41;;;;;;;13.05;11.38;;;;;;;;;;5112116;27;20028;-64
2022/10/22 09:19:12;;;;;;;17.77;12.43;;;;;;;;;;5112330;27;20019;-65
2022/10/22 09:21:38;;;;;;;13.60;10.57;;;;;;;;;;5111219;27;20073;-64
2022/10/22 09:24:15;;;;;;;13.05;10.85;;;;;;;;;;5109989;27;20432;-65
2022/10/22 09:26:41;;;;;;;17.08;11.77;;;;;;;;;;5109143;27;20050;-65
2022/10/22 09:29:06;;;;;;;14.93;10.85;;;;;;;;;;5108932;27;20035;-64
2022/10/22 09:31:32;;;;;;;27.90;14.85;;;;;;;;;;5108468;27;20028;-64
2022/10/22 09:33:58;;;;;;;15.02;11.48;;;;;;;;;;5095575;27;20030;-64
2022/10/22 09:36:23;;;;;;;18.42;12.05;;;;;;;;;;5110367;27;20113;-64
2022/10/22 09:38:50;;;;;;;14.43;11.90;;;;;;;;;;5107077;27;20045;-64
2022/10/22 09:41:16;;;;;;;16.00;12.65;;;;;;;;;;5110265;27;20059;-63
2022/10/22 09:43:41;;;;;;;15.13;11.82;;;;;;;;;;5108750;27;20027;-63
2022/10/22 09:46:12;;;;;;;13.15;11.07;;;;;;;;;;5090005;27;20069;-65
2022/10/22 09:48:41;;;;;;;15.93;10.55;;;;;;;;;;5110258;27;20111;-64
2022/10/22 09:51:09;;;;;;;12.63;10.93;;;;;;;;;;5110404;27;20401;-65
2022/10/22 09:53:36;;;;;;;17.02;13.45;;;;;;;;;;5109602;27;20023;-65
2022/10/22 09:56:06;;;;;;;21.92;14.23;;;;;;;;;;5108841;27;20034;-65
2022/10/22 09:58:40;;;;;;;18.77;14.45;;;;;;;;;;5109744;27;20019;-65
2022/10/22 10:01:05;;;;;;;19.90;14.02;;;;;;;;;;5108699;27;20032;-65
2022/10/22 10:03:32;;;;;;;15.88;13.38;;;;;;;;;;5109359;27;20112;-66
2022/10/22 10:05:58;;;;;;;18.88;14.63;;;;;;;;;;5110111;27;20134;-65
2022/10/22 10:08:24;;;;;;;22.27;16.25;;;;;;;;;;5108286;27;20019;-64
2022/10/22 10:10:52;;;;;;;37.40;27.13;;;;;;;;;;5109537;27;20479;-62
2022/10/22 10:13:17;;;;;;;38.60;28.60;;;;;;;;;;5107592;27;20023;-63
2022/10/22 10:15:45;;;;;;;48.72;34.13;;;;;;;;;;5109283;27;20023;-62
2022/10/22 10:18:16;;;;;;;23.50;16.83;;;;;;;;;;5108329;27;20015;-59
2022/10/22 10:21:00;;;;;;;21.92;15.93;;;;;;;;;;5109106;27;20022;-61
2022/10/22 10:23:44;;;;;;;25.48;19.13;;;;;;;;;;5109426;27;20019;-61
2022/10/22 10:26:10;;;;;;;26.42;21.30;;;;;;;;;;5108526;27;20035;-61
2022/10/22 10:28:35;;;;;;;25.35;22.45;;;;;;;;;;5109409;27;20466;-62
2022/10/22 10:31:15;;;;;;;19.02;14.30;;;;;;;;;;5108923;27;20028;-62
2022/10/22 10:33:46;;;;;;;19.45;13.57;;;;;;;;;;5109399;27;20054;-62
2022/10/22 10:36:50;;;;;;;17.45;14.07;;;;;;;;;;5107810;27;20028;-63
2022/10/22 10:39:24;;;;;;;17.60;13.30;;;;;;;;;;4996412;28;20029;-63
2022/10/22 10:42:00;;;;;;;64.20;41.47;;;;;;;;;;5000820;28;20029;-64
2022/10/22 10:44:28;;;;;;;22.48;16.13;;;;;;;;;;5001539;28;20052;-62
2022/10/22 10:47:15;;;;;;;15.85;12.82;;;;;;;;;;5000183;28;20030;-61
2022/10/22 10:49:42;;;;;;;17.35;14.38;;;;;;;;;;5000376;28;20084;-60
2022/10/22 10:52:25;;;;;;;19.45;15.75;;;;;;;;;;5000559;28;20150;-60
2022/10/22 10:55:07;;;;;;;17.88;13.45;;;;;;;;;;4995000;28;20030;-62
2022/10/22 10:57:44;;;;;;;18.30;13.65;;;;;;;;;;5000184;28;20041;-62
2022/10/22 11:00:12;;;;;;;18.92;15.13;;;;;;;;;;4995795;28;20030;-61
2022/10/22 11:02:37;;;;;;;21.23;14.57;;;;;;;;;;4996323;28;20050;-59
2022/10/22 11:05:10;;;;;;;23.48;16.15;;;;;;;;;;5001627;28;20022;-60
2022/10/22 11:07:58;;;;;;;17.02;14.88;;;;;;;;;;5001205;28;20108;-59
2022/10/22 11:10:28;;;;;;;21.05;15.27;;;;;;;;;;5045348;28;20152;-65
2022/10/22 11:13:00;;;;;;;21.35;14.85;;;;;;;;;;5083407;28;20028;-66
2022/10/22 11:15:33;;;;;;;17.42;15.20;;;;;;;;;;5084195;28;20538;-66
2022/10/22 11:18:01;;;;;;;18.85;14.63;;;;;;;;;;5084167;28;20110;-65
2022/10/22 11:20:27;;;;;;;18.98;14.82;;;;;;;;;;5086883;28;20032;-65
2022/10/22 11:22:56;;;;;;;18.83;14.43;;;;;;;;;;5089426;28;20032;-65
2022/10/22 11:25:22;;;;;;;19.10;14.52;;;;;;;;;;5088455;28;20791;-67
2022/10/22 11:27:55;;;;;;;20.15;15.48;;;;;;;;;;5088273;28;20023;-67
2022/10/22 11:30:21;;;;;;;20.08;16.73;;;;;;;;;;5087268;28;20077;-59
2022/10/22 11:32:50;;;;;;;18.00;14.23;;;;;;;;;;5083528;28;20039;-59
2022/10/22 11:35:17;;;;;;;16.75;14.30;;;;;;;;;;5086387;28;20129;-59
2022/10/22 11:37:43;;;;;;;18.58;15.30;;;;;;;;;;5093395;28;20039;-56
2022/10/22 11:40:29;;;;;;;18.85;14.05;;;;;;;;;;5090769;28;20378;-59
2022/10/22 11:43:02;;;;;;;18.90;14.23;;;;;;;;;;5090624;28;20031;-58
2022/10/22 11:45:29;;;;;;;17.33;14.52;;;;;;;;;;5087306;28;20325;-59
2022/10/22 11:48:06;;;;;;;17.70;15.90;;;;;;;;;;5099518;27;20575;-58
2022/10/22 11:50:53;;;;;;;20.30;14.40;;;;;;;;;;5112654;27;20091;-60
2022/10/22 11:53:26;;;;;;;21.92;15.93;;;;;;;;;;5108494;27;20119;-58
2022/10/22 11:55:54;;;;;;;16.05;14.35;;;;;;;;;;5108386;27;20028;-60
2022/10/22 11:58:33;;;;;;;18.27;15.27;;;;;;;;;;5108257;27;20037;-60
2022/10/22 12:01:02;;;;;;;22.58;17.30;;;;;;;;;;5109471;27;20533;-60
2022/10/22 12:03:27;;;;;;;17.65;15.57;;;;;;;;;;5107095;27;20031;-60
2022/10/22 12:06:07;;;;;;;17.75;15.60;;;;;;;;;;5109156;27;20047;-61
2022/10/22 12:08:32;;;;;;;27.00;18.05;;;;;;;;;;5107407;27;20714;-61
2022/10/22 12:11:11;;;;;;;31.83;24.55;;;;;;;;;;5110650;27;20019;-60
2022/10/22 12:13:57;;;;;;;22.95;20.40;;;;;;;;;;5111593;27;20087;-61
2022/10/22 12:16:26;;;;;;;27.23;19.42;;;;;;;;;;5110531;27;20069;-60
2022/10/22 12:18:57;;;;;;;22.08;17.55;;;;;;;;;;5110148;27;20405;-61
2022/10/22 12:21:22;;;;;;;28.92;23.30;;;;;;;;;;5112817;27;20244;-60
2022/10/22 12:23:49;;;;;;;27.30;22.35;;;;;;;;;;5112483;27;20031;-60
2022/10/22 12:26:24;;;;;;;21.42;15.95;;;;;;;;;;5110244;27;20023;-59
2022/10/22 12:28:49;;;;;;;20.27;15.77;;;;;;;;;;5111831;27;20143;-59
2022/10/22 12:31:15;;;;;;;19.55;16.30;;;;;;;;;;5109147;27;20027;-62
2022/10/22 12:33:40;;;;;;;17.27;15.45;;;;;;;;;;5109111;27;20106;-62
2022/10/22 12:36:05;;;;;;;17.63;14.57;;;;;;;;;;5108326;27;20031;-62
2022/10/22 12:38:31;;;;;;;27.08;16.65;;;;;;;;;;5111837;27;20022;-61
2022/10/22 12:40:56;;;;;;;22.23;15.38;;;;;;;;;;5108047;27;20088;-61
2022/10/22 12:43:26;;;;;;;23.45;15.80;;;;;;;;;;5109157;27;20023;-61
2022/10/22 12:45:52;;;;;;;23.50;17.63;;;;;;;;;;5112061;27;20023;-61
2022/10/22 12:48:26;;;;;;;24.63;18.80;;;;;;;;;;5111011;27;20082;-61
2022/10/22 12:50:53;;;;;;;24.83;20.63;;;;;;;;;;5109972;27;20024;-60
2022/10/22 12:53:23;;;;;;;28.63;21.42;;;;;;;;;;5106595;27;20081;-60
2022/10/22 12:55:50;;;;;;;27.60;19.55;;;;;;;;;;5106066;27;20118;-61
2022/10/22 12:58:16;;;;;;;22.27;18.98;;;;;;;;;;5112032;27;20487;-61
2022/10/22 13:00:44;;;;;;;26.67;18.65;;;;;;;;;;5109829;27;20552;-61
2022/10/22 13:03:25;;;;;;;18.15;16.02;;;;;;;;;;5110348;27;20073;-59
2022/10/22 13:05:50;;;;;;;21.27;16.95;;;;;;;;;;5111893;27;20030;-60
2022/10/22 13:08:17;;;;;;;31.40;23.85;;;;;;;;;;5110933;27;20023;-60
2022/10/22 13:10:48;;;;;;;21.00;16.55;;;;;;;;;;5110489;27;20074;-59
2022/10/22 13:13:30;;;;;;;21.65;18.33;;;;;;;;;;5109463;27;20027;-59
2022/10/22 13:15:55;;;;;;;22.10;17.25;;;;;;;;;;5110846;27;20106;-60
2022/10/22 13:18:22;;;;;;;21.17;18.33;;;;;;;;;;5111022;27;20027;-60
2022/10/22 13:20:50;;;;;;;22.10;18.58;;;;;;;;;;5110503;27;20027;-61
2022/10/22 13:23:18;;;;;;;22.67;18.15;;;;;;;;;;5110301;27;20118;-59
2022/10/22 13:25:55;;;;;;;21.27;18.42;;;;;;;;;;5109643;27;20097;-61
2022/10/22 13:28:20;;;;;;;22.42;17.08;;;;;;;;;;5105178;27;20259;-60
2022/10/22 13:30:56;;;;;;;22.52;19.48;;;;;;;;;;5103151;27;20027;-59
2022/10/22 13:33:27;;;;;;;25.33;19.90;;;;;;;;;;5108896;27;20119;-59
2022/10/22 13:35:54;;;;;;;27.60;21.25;;;;;;;;;;5110934;27;20115;-60
2022/10/22 13:38:21;;;;;;;23.98;18.83;;;;;;;;;;5111277;27;20034;-60
2022/10/22 13:40:46;;;;;;;24.83;19.33;;;;;;;;;;5108184;27;20035;-60
2022/10/22 13:43:12;;;;;;;26.08;19.55;;;;;;;;;;5104099;27;20093;-60
2022/10/22 13:45:37;;;;;;;28.30;20.67;;;;;;;;;;5109149;27;20127;-56
2022/10/22 13:48:03;;;;;;;26.92;20.77;;;;;;;;;;5087344;28;20051;-56
2022/10/22 13:50:28;;;;;;;23.35;20.40;;;;;;;;;;5089294;28;20027;-59
2022/10/22 13:52:55;;;;;;;28.63;21.50;;;;;;;;;;5086411;28;20088;-57
2022/10/22 13:55:24;;;;;;;30.55;23.52;;;;;;;;;;5083603;28;20012;-56
2022/10/22 13:57:49;;;;;;;29.98;22.75;;;;;;;;;;5088244;27;20485;-60
2022/10/22 14:00:17;;;;;;;36.38;26.77;;;;;;;;;;5082892;28;20028;-60
2022/10/22 14:02:42;;;;;;;39.65;28.67;;;;;;;;;;5085003;28;20039;-58
2022/10/22 14:05:10;;;;;;;36.70;26.80;;;;;;;;;;5084242;28;20119;-58
2022/10/22 14:07:35;;;;;;;32.47;25.38;;;;;;;;;;5085170;28;20016;-57
2022/10/22 14:10:01;;;;;;;30.83;24.48;;;;;;;;;;5087414;28;20035;-57
2022/10/22 14:12:27;;;;;;;31.30;23.40;;;;;;;;;;5084690;28;20052;-56
2022/10/22 14:14:52;;;;;;;32.72;23.77;;;;;;;;;;5083297;28;20550;-56
2022/10/22 14:17:18;;;;;;;29.40;23.25;;;;;;;;;;5086687;28;20030;-59
2022/10/22 14:19:44;;;;;;;31.38;23.88;;;;;;;;;;5086556;28;20023;-56
2022/10/22 14:22:15;;;;;;;37.47;26.55;;;;;;;;;;5069276;28;20246;-59